Time;durP1;ratioP1;P1;durP2;ratioP2;P2;SDS_P1;SDS_P2;PMS_P1;PMS_P2;Temp;Humidity;BMP_temperature;BMP_pressure;BME280_temperature;BME280_humidity;BME280_pressure;Samples;Min_cycle;Max_cycle;Signal;HPM_P1;HPM_P2
2021/11/26 00:02:26;;;;;;;;;11.25;8.75;;;;;9.19;59.91;100639.88;5002977;28;45424;-50
2021/11/26 00:04:53;;;;;;;;;6.25;5.25;;;;;9.17;59.81;100627.69;5002914;28;46198;-50
2021/11/26 00:07:21;;;;;;;;;10.50;6.00;;;;;9.15;59.66;100632.09;5003251;28;45319;-46
2021/11/26 00:09:48;;;;;;;;;10.25;6.25;;;;;9.14;59.84;100625.09;5002983;28;45352;-49
2021/11/26 00:12:14;;;;;;;;;6.75;4.75;;;;;9.12;59.56;100622.50;5003370;28;45372;-48
2021/11/26 00:15:06;;;;;;;;;10.25;6.00;;;;;9.08;59.69;100626.91;5002533;28;45344;-51
2021/11/26 00:17:34;;;;;;;;;10.50;6.00;;;;;9.03;59.77;100626.09;5002855;28;45379;-48
2021/11/26 00:20:00;;;;;;;;;9.75;8.50;;;;;9.04;59.54;100627.81;5003142;28;45348;-48
2021/11/26 00:22:25;;;;;;;;;9.25;7.25;;;;;9.02;59.48;100623.44;5002728;28;45345;-50
2021/11/26 00:24:53;;;;;;;;;10.25;6.00;;;;;8.89;60.02;100601.75;5002764;28;46033;-48
2021/11/26 00:27:18;;;;;;;;;11.00;5.75;;;;;8.93;59.66;100606.06;5001616;28;45293;-54
2021/11/26 00:29:43;;;;;;;;;7.75;6.50;;;;;8.94;59.85;100615.66;5002740;28;45297;-51
2021/11/26 00:32:09;;;;;;;;;12.75;8.75;;;;;8.87;59.59;100611.38;5002780;28;45506;-51
2021/11/26 00:34:34;;;;;;;;;10.50;6.50;;;;;8.89;59.65;100607.88;5002610;28;46101;-56
2021/11/26 00:37:00;;;;;;;;;6.75;6.50;;;;;8.87;59.51;100614.88;5017840;28;45407;-49
2021/11/26 00:39:25;;;;;;;;;8.75;6.50;;;;;8.86;59.86;100614.88;5002773;28;45470;-51
2021/11/26 00:41:51;;;;;;;;;6.00;6.00;;;;;8.82;59.79;100610.53;5002705;28;45495;-51
2021/11/26 00:44:16;;;;;;;;;11.00;8.25;;;;;8.80;59.59;100613.19;5002191;28;47330;-51
2021/11/26 00:46:42;;;;;;;;;7.25;7.25;;;;;8.75;59.34;100602.75;5002695;28;45253;-50
2021/11/26 00:49:07;;;;;;;;;9.00;5.00;;;;;8.75;59.73;100601.88;5002793;28;45270;-52
2021/11/26 00:51:32;;;;;;;;;5.00;5.00;;;;;8.70;59.44;100596.66;5002587;28;45331;-51
2021/11/26 00:53:59;;;;;;;;;9.50;6.00;;;;;8.69;59.81;100601.91;5002375;28;45390;-49
2021/11/26 00:56:24;;;;;;;;;4.00;2.25;;;;;8.69;59.18;100601.91;5002381;28;45375;-50
2021/11/26 00:58:50;;;;;;;;;6.00;4.50;;;;;8.67;59.59;100603.72;5000939;28;45320;-51
2021/11/26 01:01:15;;;;;;;;;8.50;6.00;;;;;8.66;59.51;100604.59;5002123;28;45576;-51
2021/11/26 01:03:41;;;;;;;;;8.25;5.50;;;;;8.64;59.60;100604.59;5001038;28;45604;-51
2021/11/26 01:06:06;;;;;;;;;8.25;6.25;;;;;8.62;59.49;100593.25;5002155;28;45486;-50
2021/11/26 01:08:31;;;;;;;;;6.50;5.50;;;;;8.61;59.43;100594.13;5002644;28;45604;-50
2021/11/26 01:10:57;;;;;;;;;10.25;6.75;;;;;8.58;59.67;100588.94;5002013;28;45964;-51
2021/11/26 01:13:23;;;;;;;;;4.50;4.00;;;;;8.58;59.65;100588.94;4984263;28;47289;-50
2021/11/26 01:15:48;;;;;;;;;7.00;6.75;;;;;8.56;59.76;100586.31;5000830;28;45276;-54
2021/11/26 01:18:15;;;;;;;;;7.25;6.00;;;;;8.57;59.37;100592.44;5002400;28;45289;-51
2021/11/26 01:20:42;;;;;;;;;7.00;5.00;;;;;8.56;59.62;100585.44;5001891;28;45403;-52
2021/11/26 01:23:09;;;;;;;;;11.00;7.00;;;;;8.55;59.67;100587.22;5001873;28;46395;-49
2021/11/26 01:25:35;;;;;;;;;8.00;6.75;;;;;8.56;59.43;100588.91;5001682;28;45375;-50
2021/11/26 01:28:01;;;;;;;;;5.75;5.50;;;;;8.55;59.60;100581.97;5001977;28;45307;-47
2021/11/26 01:30:37;;;;;;;;;11.75;8.25;;;;;8.55;59.55;100589.84;5001777;28;45158;-49
2021/11/26 01:33:08;;;;;;;;;7.25;6.50;;;;;8.57;59.71;100581.94;5001860;28;46187;-48
2021/11/26 01:35:34;;;;;;;;;7.50;5.75;;;;;8.57;59.76;100579.34;5001619;28;45555;-50
2021/11/26 01:38:00;;;;;;;;;8.50;5.00;;;;;8.58;59.62;100573.22;5002026;28;45328;-48
2021/11/26 01:40:26;;;;;;;;;11.50;6.75;;;;;8.57;59.42;100561.84;5000042;28;45558;-50
2021/11/26 01:42:54;;;;;;;;;9.00;7.00;;;;;8.52;59.56;100565.41;5000377;28;46138;-49
2021/11/26 01:45:20;;;;;;;;;11.75;10.25;;;;;8.53;59.95;100564.50;5001447;28;45466;-50
2021/11/26 01:47:45;;;;;;;;;9.50;7.25;;;;;8.55;59.53;100565.38;5001860;28;45345;-54
2021/11/26 01:50:12;;;;;;;;;14.75;9.50;;;;;8.55;59.61;100571.50;5001503;28;45351;-51
2021/11/26 01:52:38;;;;;;;;;10.50;7.25;;;;;8.54;59.66;100563.63;5001601;28;45467;-51
2021/11/26 01:55:06;;;;;;;;;6.25;6.25;;;;;8.54;59.81;100561.88;5001235;28;45477;-48
2021/11/26 01:57:31;;;;;;;;;5.25;5.25;;;;;8.53;59.64;100560.16;5001731;28;45138;-50
2021/11/26 01:59:57;;;;;;;;;8.50;6.50;;;;;8.53;59.46;100554.03;5001255;28;45248;-48
2021/11/26 02:02:22;;;;;;;;;7.50;7.25;;;;;8.53;59.62;100548.78;5001157;28;46270;-47
2021/11/26 02:04:48;;;;;;;;;12.00;7.75;;;;;8.54;59.77;100542.66;5001143;28;45429;-47
2021/11/26 02:07:14;;;;;;;;;5.50;5.50;;;;;8.53;59.48;100531.34;5001575;28;45316;-50
2021/11/26 02:09:40;;;;;;;;;7.50;7.50;;;;;8.54;59.63;100525.22;5001112;28;45301;-48
2021/11/26 02:12:05;;;;;;;;;7.50;6.50;;;;;8.57;59.36;100526.94;5001332;28;46125;-47
2021/11/26 02:14:31;;;;;;;;;10.25;6.75;;;;;8.56;59.37;100526.06;5000525;28;45750;-50
2021/11/26 02:16:57;;;;;;;;;9.75;7.25;;;;;8.58;59.45;100520.84;5001170;28;45331;-49
2021/11/26 02:19:25;;;;;;;;;10.25;8.00;;;;;8.58;59.50;100512.97;5001086;28;45326;-51
2021/11/26 02:21:52;;;;;;;;;8.50;6.25;;;;;8.59;59.60;100509.44;5000984;28;46209;-51
2021/11/26 02:24:18;;;;;;;;;11.50;8.25;;;;;8.57;59.48;100508.59;4999412;28;45369;-52
2021/11/26 02:26:45;;;;;;;;;9.00;7.25;;;;;8.57;59.51;100504.22;5001218;28;45214;-51
2021/11/26 02:29:12;;;;;;;;;10.25;9.25;;;;;8.57;59.45;100495.50;5000724;28;45545;-51
2021/11/26 02:31:38;;;;;;;;;6.00;6.00;;;;;8.57;59.53;100487.66;4999534;28;47249;-51
2021/11/26 02:34:04;;;;;;;;;11.00;9.00;;;;;8.58;59.58;100486.78;5000629;28;45504;-52
2021/11/26 02:36:30;;;;;;;;;9.00;9.00;;;;;8.57;59.67;100483.28;5001093;28;45332;-50
2021/11/26 02:38:56;;;;;;;;;10.75;10.75;;;;;8.55;59.71;100486.78;4999372;28;45668;-52
2021/11/26 02:41:21;;;;;;;;;10.25;8.75;;;;;8.57;59.52;100482.41;4999336;28;46140;-51
2021/11/26 02:43:47;;;;;;;;;8.25;6.75;;;;;8.57;59.45;100482.41;5000453;28;45217;-48
2021/11/26 02:46:12;;;;;;;;;7.25;6.00;;;;;8.55;59.46;100473.69;5000772;28;45305;-52
2021/11/26 02:48:38;;;;;;;;;9.25;8.00;;;;;8.54;59.42;100471.94;4999542;28;45256;-48
2021/11/26 02:51:04;;;;;;;;;9.00;6.00;;;;;8.54;59.52;100474.56;4999509;28;46044;-47
2021/11/26 02:53:30;;;;;;;;;8.00;7.25;;;;;8.54;59.60;100466.72;5000612;28;45437;-49
2021/11/26 02:55:55;;;;;;;;;12.50;7.50;;;;;8.54;59.47;100469.34;4999484;28;45351;-51
2021/11/26 02:58:21;;;;;;;;;0.50;0.50;;;;;8.52;59.52;100463.25;5000339;28;45335;-50
2021/11/26 03:00:50;;;;;;;;;13.00;9.25;;;;;8.45;59.36;100460.66;5000502;28;45364;-48
2021/11/26 03:03:16;;;;;;;;;10.25;9.50;;;;;8.45;59.51;100454.53;5000324;28;45349;-50
2021/11/26 03:05:41;;;;;;;;;9.75;8.00;;;;;8.43;59.72;100453.72;5000682;28;45477;-49
2021/11/26 03:08:07;;;;;;;;;12.00;10.25;;;;;8.38;59.50;100445.91;4999719;28;45315;-50
2021/11/26 03:10:34;;;;;;;;;13.00;9.25;;;;;8.38;59.70;100448.50;4998410;28;47194;-51
2021/11/26 03:13:04;;;;;;;;;10.75;9.00;;;;;8.35;59.44;100445.06;4998933;28;46167;-51
2021/11/26 03:15:31;;;;;;;;;12.50;6.00;;;;;8.33;59.37;100436.34;5000424;28;45332;-51
2021/11/26 03:17:57;;;;;;;;;11.25;9.75;;;;;8.32;59.80;100435.47;5000195;28;45166;-49
2021/11/26 03:20:25;;;;;;;;;7.50;6.25;;;;;8.29;59.50;100436.38;5000047;28;46287;-52
2021/11/26 03:22:51;;;;;;;;;10.25;6.75;;;;;8.27;59.82;100429.41;5000146;28;45436;-51
2021/11/26 03:25:16;;;;;;;;;11.25;6.00;;;;;8.26;59.58;100435.53;5000308;28;45332;-47
2021/11/26 03:27:43;;;;;;;;;13.50;11.25;;;;;8.24;59.45;100430.31;4998836;28;45298;-50
2021/11/26 03:30:11;;;;;;;;;8.50;7.75;;;;;8.22;59.64;100421.59;5000235;28;45361;-49
2021/11/26 03:32:37;;;;;;;;;6.75;6.75;;;;;8.23;59.58;100422.50;4998902;28;45249;-51
2021/11/26 03:35:03;;;;;;;;;9.00;7.75;;;;;8.22;59.68;100418.13;5000032;28;45241;-49
2021/11/26 03:37:28;;;;;;;;;10.50;8.50;;;;;8.18;59.64;100408.59;4999085;28;46057;-50
2021/11/26 03:39:54;;;;;;;;;8.75;7.75;;;;;8.19;59.72;100411.19;4999861;28;45973;-51
2021/11/26 03:42:19;;;;;;;;;17.25;10.50;;;;;8.17;59.47;100405.06;5000091;28;45222;-50
2021/11/26 03:44:45;;;;;;;;;10.00;7.25;;;;;8.18;59.43;100395.50;4999793;28;45948;-49
2021/11/26 03:47:10;;;;;;;;;10.75;5.75;;;;;8.14;59.54;100400.75;4999974;28;45291;-47
2021/11/26 03:49:36;;;;;;;;;8.25;4.75;;;;;8.16;59.60;100386.78;4999943;28;47331;-52
2021/11/26 03:52:01;;;;;;;;;10.50;9.50;;;;;8.16;59.44;100386.78;4999898;28;45319;-51
2021/11/26 03:54:27;;;;;;;;;13.50;9.50;;;;;8.13;59.57;100378.06;4999875;28;45370;-52
2021/11/26 03:56:52;;;;;;;;;10.50;9.00;;;;;8.12;59.53;100381.56;4998458;28;45346;-50
2021/11/26 03:59:17;;;;;;;;;7.50;7.50;;;;;8.09;59.31;100373.75;4999607;28;45316;-48
2021/11/26 04:01:43;;;;;;;;;9.25;7.50;;;;;8.11;59.57;100376.34;4998241;28;45387;-51
2021/11/26 04:04:08;;;;;;;;;11.50;9.25;;;;;8.09;59.37;100373.75;4999914;28;45370;-49
2021/11/26 04:06:33;;;;;;;;;10.00;8.00;;;;;8.07;59.80;100369.41;4999740;28;45349;-49
2021/11/26 04:08:59;;;;;;;;;12.00;9.25;;;;;8.06;59.53;100371.19;4999528;28;45906;-49
2021/11/26 04:11:26;;;;;;;;;10.50;9.25;;;;;8.04;59.63;100365.06;4999569;28;45316;-50
2021/11/26 04:13:51;;;;;;;;;9.25;8.25;;;;;8.01;59.52;100354.63;4999623;28;45454;-48
2021/11/26 04:16:17;;;;;;;;;12.25;8.00;;;;;8.01;59.55;100348.53;4999523;28;45225;-49
2021/11/26 04:18:43;;;;;;;;;10.50;9.25;;;;;8.00;59.65;100352.03;4999506;28;46182;-50
2021/11/26 04:21:09;;;;;;;;;5.25;3.50;;;;;7.98;59.60;100346.81;4999434;28;45280;-50
2021/11/26 04:23:34;;;;;;;;;10.50;9.00;;;;;7.96;60.01;100339.00;4999529;28;45281;-48
2021/11/26 04:26:00;;;;;;;;;13.50;10.00;;;;;7.95;59.48;100345.09;4999452;28;45556;-49
2021/11/26 04:28:25;;;;;;;;;9.75;8.00;;;;;7.93;59.74;100344.22;4999346;28;45369;-51
2021/11/26 04:30:52;;;;;;;;;12.50;10.50;;;;;7.89;59.75;100342.53;4999246;28;45307;-49
2021/11/26 04:33:17;;;;;;;;;13.50;9.50;;;;;7.84;59.66;100338.25;4998184;28;45308;-50
2021/11/26 04:35:48;;;;;;;;;8.50;7.50;;;;;7.77;59.76;100333.06;4997938;28;45528;-49
2021/11/26 04:38:14;;;;;;;;;12.00;10.00;;;;;7.76;59.63;100336.56;4998797;28;48301;-52
2021/11/26 04:40:40;;;;;;;;;12.50;8.75;;;;;7.71;59.83;100332.22;5002444;28;45570;-46
2021/11/26 04:43:05;;;;;;;;;11.75;9.75;;;;;7.67;59.98;100331.38;5002470;28;45376;-51
2021/11/26 04:45:31;;;;;;;;;9.75;9.50;;;;;7.63;60.08;100321.84;5002346;28;45566;-49
2021/11/26 04:47:56;;;;;;;;;15.50;9.25;;;;;7.58;60.19;100324.50;5008391;28;47724;-49
2021/11/26 04:50:21;;;;;;;;;10.25;8.75;;;;;7.54;60.23;100325.41;5002392;28;45268;-48
2021/11/26 04:52:47;;;;;;;;;11.75;9.50;;;;;7.49;60.07;100314.97;5002685;28;45294;-50
2021/11/26 04:55:13;;;;;;;;;11.75;9.75;;;;;7.45;60.28;100308.03;5002337;28;45312;-47
2021/11/26 04:57:39;;;;;;;;;10.00;9.00;;;;;7.43;60.20;100314.16;5002141;28;46235;-52
2021/11/26 05:00:06;;;;;;;;;11.50;11.00;;;;;7.38;60.37;100303.72;5002187;28;45417;-50
2021/11/26 05:02:31;;;;;;;;;9.00;6.75;;;;;7.38;60.31;100308.09;5002401;28;45245;-48
2021/11/26 05:04:57;;;;;;;;;10.50;10.25;;;;;7.34;60.19;100296.81;5002148;28;45209;-52
2021/11/26 05:07:23;;;;;;;;;12.75;11.00;;;;;7.32;60.18;100306.44;5002205;28;46282;-50
2021/11/26 05:09:49;;;;;;;;;12.75;10.00;;;;;7.27;60.32;100298.63;5002167;28;45317;-52
2021/11/26 05:12:14;;;;;;;;;8.75;7.25;;;;;7.28;60.45;100294.25;5001216;28;45244;-50
2021/11/26 05:14:40;;;;;;;;;11.50;10.50;;;;;7.24;60.34;100289.91;5002039;28;45452;-47
2021/11/26 05:17:05;;;;;;;;;13.00;10.25;;;;;7.24;60.35;100284.69;5002305;28;45413;-50
2021/11/26 05:19:31;;;;;;;;;10.50;10.00;;;;;7.24;60.50;100292.53;5000943;28;45309;-50
2021/11/26 05:21:56;;;;;;;;;15.50;10.50;;;;;7.18;60.52;100276.91;5002232;28;45320;-48
2021/11/26 05:24:21;;;;;;;;;16.50;11.50;;;;;7.20;60.30;100277.75;5001884;28;45573;-50
2021/11/26 05:26:47;;;;;;;;;14.25;11.25;;;;;7.18;60.31;100275.13;5001907;28;46074;-48
2021/11/26 05:29:12;;;;;;;;;16.50;11.50;;;;;7.16;60.35;100269.06;5001705;28;45323;-49
2021/11/26 05:31:38;;;;;;;;;19.00;17.75;;;;;7.15;60.36;100264.72;5002179;28;45657;-47
2021/11/26 05:34:06;;;;;;;;;16.25;13.50;;;;;7.16;60.44;100253.41;5000321;28;45608;-49
2021/11/26 05:36:33;;;;;;;;;21.25;16.25;;;;;7.14;60.36;100257.75;5002062;28;45297;-49
2021/11/26 05:38:58;;;;;;;;;14.75;13.25;;;;;7.15;60.50;100255.13;5001492;28;45317;-52
2021/11/26 05:41:24;;;;;;;;;16.75;14.00;;;;;7.13;60.55;100245.56;5001925;28;45360;-50
2021/11/26 05:43:49;;;;;;;;;18.50;14.50;;;;;7.13;60.42;100236.00;5001309;28;45174;-48
2021/11/26 05:46:15;;;;;;;;;16.50;15.75;;;;;7.13;60.45;100230.78;5001563;28;46260;-47
2021/11/26 05:48:41;;;;;;;;;19.50;15.75;;;;;7.12;60.51;100223.81;5001458;28;45351;-51
2021/11/26 05:51:06;;;;;;;;;16.75;15.00;;;;;7.10;60.79;100224.69;5001197;28;45338;-48
2021/11/26 05:53:31;;;;;;;;;17.00;16.25;;;;;7.07;60.54;100211.66;5001405;28;45316;-48
2021/11/26 05:55:59;;;;;;;;;18.75;17.25;;;;;7.06;60.44;100210.78;5001496;28;45315;-48
2021/11/26 05:58:25;;;;;;;;;19.50;18.75;;;;;7.05;60.56;100213.41;4999853;28;45389;-51
2021/11/26 06:00:51;;;;;;;;;16.50;14.50;;;;;7.02;60.53;100210.81;5001607;28;45294;-51
2021/11/26 06:03:16;;;;;;;;;17.50;16.50;;;;;7.02;60.72;100213.44;5001166;28;45372;-48
2021/11/26 06:05:41;;;;;;;;;17.75;17.50;;;;;7.00;60.58;100213.44;5001328;28;46132;-50
2021/11/26 06:08:07;;;;;;;;;18.75;15.75;;;;;6.96;60.66;100209.13;5000001;28;45250;-50
2021/11/26 06:10:33;;;;;;;;;19.00;17.75;;;;;6.97;60.52;100208.25;5000053;28;45413;-51
2021/11/26 06:12:58;;;;;;;;;20.75;20.25;;;;;6.96;60.58;100196.94;5000915;28;45547;-51
2021/11/26 06:15:24;;;;;;;;;24.50;22.00;;;;;6.94;60.46;100193.47;5001249;28;45316;-50
2021/11/26 06:17:49;;;;;;;;;25.25;20.75;;;;;6.97;60.55;100190.81;5001023;28;45256;-48
2021/11/26 06:20:15;;;;;;;;;21.00;18.25;;;;;6.96;60.79;100180.41;5001339;28;45301;-49
2021/11/26 06:22:41;;;;;;;;;21.00;18.25;;;;;6.98;60.53;100178.63;5000919;28;45336;-49
2021/11/26 06:25:09;;;;;;;;;24.00;18.75;;;;;7.00;60.51;100184.72;5000948;28;46118;-48
2021/11/26 06:27:34;;;;;;;;;18.75;18.00;;;;;7.03;60.76;100184.69;5000523;28;45267;-49
2021/11/26 06:30:00;;;;;;;;;20.00;17.75;;;;;7.04;60.43;100181.19;5000964;28;45517;-48
2021/11/26 06:32:25;;;;;;;;;18.75;17.50;;;;;7.04;60.67;100175.97;5000883;28;45245;-52
2021/11/26 06:34:52;;;;;;;;;20.50;17.75;;;;;7.03;60.54;100174.25;5000803;28;46209;-51
2021/11/26 06:37:18;;;;;;;;;18.25;16.00;;;;;7.02;60.51;100175.13;5000801;28;45248;-51
2021/11/26 06:39:43;;;;;;;;;18.50;17.00;;;;;7.02;60.51;100169.00;5000760;28;45282;-49
2021/11/26 06:42:09;;;;;;;;;20.25;17.25;;;;;6.99;60.57;100160.34;5000813;28;45325;-48
2021/11/26 06:44:36;;;;;;;;;20.25;18.25;;;;;6.98;60.62;100158.59;4999078;28;45979;-48
2021/11/26 06:47:02;;;;;;;;;25.00;20.25;;;;;6.96;60.69;100149.91;5015940;28;45367;-47
2021/11/26 06:49:28;;;;;;;;;21.75;18.25;;;;;6.95;60.79;100150.78;5000701;28;45329;-49
2021/11/26 06:51:53;;;;;;;;;17.25;15.00;;;;;6.95;60.72;100147.31;5000380;28;45325;-50
2021/11/26 06:54:19;;;;;;;;;21.00;16.50;;;;;6.92;60.72;100136.91;5000476;28;45574;-51
2021/11/26 06:56:44;;;;;;;;;19.00;17.00;;;;;6.90;60.78;100128.19;4999209;28;45416;-52
2021/11/26 06:59:10;;;;;;;;;22.25;19.00;;;;;6.93;60.73;100130.78;5000381;28;45447;-48
2021/11/26 07:01:35;;;;;;;;;18.00;16.00;;;;;6.92;60.80;100124.69;5000204;28;45256;-48
2021/11/26 07:04:01;;;;;;;;;19.75;16.00;;;;;6.89;60.72;100111.66;5000377;28;45319;-50
2021/11/26 07:06:26;;;;;;;;;20.75;16.75;;;;;6.93;60.75;100113.38;5000770;28;45298;-51
2021/11/26 07:08:52;;;;;;;;;20.25;16.50;;;;;6.94;60.81;100114.22;4999302;28;45256;-52
2021/11/26 07:11:17;;;;;;;;;11.00;9.25;;;;;6.96;60.85;100108.09;4999039;28;45427;-48
2021/11/26 07:13:43;;;;;;;;;21.75;17.75;;;;;6.96;60.48;100108.09;5000155;28;46261;-48
2021/11/26 07:16:08;;;;;;;;;13.50;13.25;;;;;6.94;60.62;100093.31;5000213;28;45465;-49
2021/11/26 07:18:34;;;;;;;;;18.50;17.00;;;;;6.97;60.63;100101.16;5000523;28;45284;-48
2021/11/26 07:20:59;;;;;;;;;15.00;11.00;;;;;6.95;60.86;100101.16;5000125;28;45223;-48
2021/11/26 07:23:25;;;;;;;;;20.25;17.25;;;;;6.95;60.70;100092.44;5000101;28;45228;-45
2021/11/26 07:25:50;;;;;;;;;19.75;14.50;;;;;6.93;60.61;100083.75;5000097;28;45479;-48
2021/11/26 07:28:16;;;;;;;;;18.00;13.75;;;;;6.92;60.82;100089.88;5000282;28;45471;-47
2021/11/26 07:30:42;;;;;;;;;15.75;15.25;;;;;6.92;60.79;100076.81;4999900;28;45609;-49
2021/11/26 07:33:08;;;;;;;;;19.25;17.25;;;;;6.92;60.65;100064.63;5000159;28;45388;-45
2021/11/26 07:35:33;;;;;;;;;19.25;16.25;;;;;6.93;60.83;100066.34;4999839;28;45474;-45
2021/11/26 07:37:59;;;;;;;;;17.00;13.25;;;;;6.92;60.80;100064.63;5000083;28;45431;-44
2021/11/26 07:40:24;;;;;;;;;19.75;16.75;;;;;6.95;60.86;100063.72;4998405;28;45254;-45
2021/11/26 07:42:49;;;;;;;;;17.50;17.00;;;;;6.97;60.65;100061.97;4999828;28;45297;-47
2021/11/26 07:45:16;;;;;;;;;20.75;17.00;;;;;6.97;60.56;100067.19;4992200;28;47380;-46
2021/11/26 07:47:41;;;;;;;;;21.25;15.00;;;;;6.95;60.58;100055.88;5002396;28;45237;-44
2021/11/26 07:50:08;;;;;;;;;22.00;17.75;;;;;6.93;60.67;100047.19;4997044;28;45521;-44
2021/11/26 07:52:35;;;;;;;;;22.50;20.00;;;;;6.92;60.64;100042.88;5013154;28;47627;-47
2021/11/26 07:55:01;;;;;;;;;22.00;18.25;;;;;6.93;60.53;100048.06;4990791;28;45384;-45
2021/11/26 07:57:26;;;;;;;;;20.75;19.25;;;;;6.92;60.55;100041.09;5003195;28;45246;-45
2021/11/26 07:59:52;;;;;;;;;24.75;20.75;;;;;6.91;60.64;100036.75;4997928;28;45387;-47
2021/11/26 08:02:17;;;;;;;;;19.00;14.00;;;;;6.90;60.64;100042.00;4999000;28;45372;-45
2021/11/26 08:04:43;;;;;;;;;16.50;15.25;;;;;6.87;60.77;100040.28;5004951;28;45356;-44
2021/11/26 08:07:08;;;;;;;;;17.00;14.00;;;;;6.89;60.95;100041.13;4999181;28;45395;-46
2021/11/26 08:09:34;;;;;;;;;18.25;18.25;;;;;6.88;60.84;100042.03;4999053;28;45379;-44
2021/11/26 08:11:59;;;;;;;;;21.00;18.25;;;;;6.88;60.99;100030.69;4999189;28;46115;-46
2021/11/26 08:14:25;;;;;;;;;19.50;16.75;;;;;6.89;60.80;100014.16;5001366;28;45391;-48
2021/11/26 08:16:53;;;;;;;;;15.50;14.25;;;;;6.90;60.89;100018.50;5002740;28;45380;-47
2021/11/26 08:19:19;;;;;;;;;23.50;20.50;;;;;6.90;60.98;99998.44;5002221;28;45537;-45
2021/11/26 08:21:46;;;;;;;;;24.25;19.75;;;;;6.92;60.70;100001.06;5002587;28;46188;-45
2021/11/26 08:24:11;;;;;;;;;19.50;15.25;;;;;6.86;60.98;99988.94;5000715;28;45301;-48
2021/11/26 08:26:39;;;;;;;;;21.25;19.25;;;;;6.92;60.71;99994.09;5018041;28;45441;-48
2021/11/26 08:29:05;;;;;;;;;18.75;18.00;;;;;6.92;60.86;99991.47;5001743;28;45328;-47
2021/11/26 08:31:31;;;;;;;;;26.25;20.75;;;;;6.94;60.92;99994.06;5002338;28;45479;-48
2021/11/26 08:33:58;;;;;;;;;20.50;17.25;;;;;6.93;61.02;99987.97;5001400;28;45256;-47
2021/11/26 08:36:23;;;;;;;;;14.50;12.75;;;;;6.88;60.84;99984.56;5008760;28;45408;-45
2021/11/26 08:38:52;;;;;;;;;18.00;16.75;;;;;6.90;60.94;99984.53;5002106;28;45439;-46
2021/11/26 08:41:18;;;;;;;;;18.50;16.00;;;;;6.90;60.93;99988.00;5002178;28;46205;-45
2021/11/26 08:43:44;;;;;;;;;16.75;15.75;;;;;6.92;61.13;99983.63;5001707;28;45393;-45
2021/11/26 08:46:09;;;;;;;;;20.25;18.00;;;;;6.90;60.93;99976.69;4989653;28;45222;-49
2021/11/26 08:48:35;;;;;;;;;20.75;17.75;;;;;6.92;60.92;99988.00;5001399;28;45582;-46
2021/11/26 08:51:01;;;;;;;;;19.75;16.50;;;;;6.96;61.03;99981.88;5002152;28;45932;-45
2021/11/26 08:53:27;;;;;;;;;17.25;14.25;;;;;6.98;61.00;99975.72;5002086;28;45313;-50
2021/11/26 08:55:55;;;;;;;;;21.00;15.50;;;;;6.99;61.02;99966.13;5002273;28;45222;-46
2021/11/26 08:58:23;;;;;;;;;17.25;14.50;;;;;7.02;61.09;99965.22;4998068;28;45150;-47
2021/11/26 09:00:49;;;;;;;;;14.00;14.00;;;;;7.00;60.96;99978.31;4994507;28;46203;-48
2021/11/26 09:03:15;;;;;;;;;12.25;11.50;;;;;7.02;61.18;99971.34;5001285;28;45300;-48
2021/11/26 09:05:41;;;;;;;;;16.25;11.00;;;;;7.02;60.79;99963.50;5002119;28;45242;-51
2021/11/26 09:08:13;;;;;;;;;15.50;13.75;;;;;7.04;60.83;99959.09;5001753;28;45487;-48
2021/11/26 09:10:39;;;;;;;;;13.50;10.75;;;;;7.03;61.20;99957.41;5001637;28;46158;-50
2021/11/26 09:13:05;;;;;;;;;9.75;9.00;;;;;7.05;60.96;99945.16;5000024;28;45500;-47
2021/11/26 09:15:32;;;;;;;;;17.00;14.25;;;;;7.06;61.13;99941.69;5001954;28;45238;-48
2021/11/26 09:17:58;;;;;;;;;14.75;14.00;;;;;7.06;60.85;99935.59;5001627;28;45246;-50
2021/11/26 09:20:24;;;;;;;;;18.00;14.00;;;;;7.07;61.02;99932.06;5001499;28;46080;-50
2021/11/26 09:22:50;;;;;;;;;9.75;9.00;;;;;7.10;60.94;99942.50;5001811;28;45364;-50
2021/11/26 09:25:16;;;;;;;;;16.50;13.25;;;;;7.11;60.91;99918.97;5000499;28;45403;-49
2021/11/26 09:27:41;;;;;;;;;10.50;10.00;;;;;7.10;61.06;99911.16;5001598;28;45431;-48
2021/11/26 09:30:11;;;;;;;;;14.00;11.25;;;;;7.14;60.85;99911.09;5001492;28;46057;-47
2021/11/26 09:32:37;;;;;;;;;10.75;9.75;;;;;7.14;60.92;99903.25;5001835;28;45731;-47
2021/11/26 09:35:04;;;;;;;;;10.75;10.25;;;;;7.13;60.91;99896.31;5009342;28;45423;-49
2021/11/26 09:37:29;;;;;;;;;9.75;9.75;;;;;7.18;60.96;99895.38;5001711;28;45253;-48
2021/11/26 09:39:54;;;;;;;;;13.75;10.75;;;;;7.20;60.75;99898.84;5000901;28;45402;-50
2021/11/26 09:42:20;;;;;;;;;12.25;9.00;;;;;7.18;60.81;99882.28;5001642;28;45408;-50
2021/11/26 09:44:46;;;;;;;;;14.75;11.00;;;;;7.23;60.78;99877.88;5001204;28;45352;-52
2021/11/26 09:47:12;;;;;;;;;7.50;3.75;;;;;7.29;60.78;99883.00;4988787;28;45324;-49
2021/11/26 09:49:38;;;;;;;;;13.25;13.00;;;;;7.32;60.82;99875.13;5001237;28;46553;-48
2021/11/26 09:52:03;;;;;;;;;10.00;8.75;;;;;7.38;60.76;99866.31;5001536;28;45380;-50
2021/11/26 09:54:38;;;;;;;;;14.50;12.00;;;;;7.42;60.88;99865.38;5016387;28;45454;-48
2021/11/26 09:57:04;;;;;;;;;13.00;10.75;;;;;7.48;60.90;99858.34;5001577;28;45640;-49
2021/11/26 09:59:29;;;;;;;;;11.75;9.50;;;;;7.56;60.78;99847.75;5000596;28;45428;-52
2021/11/26 10:01:54;;;;;;;;;15.00;12.00;;;;;7.64;60.79;99834.53;5001170;28;45311;-50
2021/11/26 10:04:21;;;;;;;;;11.00;9.50;;;;;7.70;60.75;99834.44;5000958;28;45301;-51
2021/11/26 10:06:47;;;;;;;;;10.75;9.50;;;;;7.75;60.75;99834.38;4999943;28;45629;-50
2021/11/26 10:09:17;;;;;;;;;10.50;9.00;;;;;7.82;61.01;99822.91;5000723;28;46125;-48
2021/11/26 10:11:57;;;;;;;;;8.75;8.25;;;;;7.91;60.65;99824.50;5001090;28;45399;-47
2021/11/26 10:14:24;;;;;;;;;10.50;8.00;;;;;7.96;60.72;99814.81;4999623;28;45340;-49
2021/11/26 10:17:07;;;;;;;;;12.50;8.00;;;;;8.00;60.51;99815.63;5001128;28;45480;-45
2021/11/26 10:19:37;;;;;;;;;12.00;9.00;;;;;8.00;60.47;99807.75;4998737;28;47288;-45
2021/11/26 10:22:24;;;;;;;;;10.50;8.25;;;;;8.03;60.57;99802.50;4999539;28;45383;-49
2021/11/26 10:24:55;;;;;;;;;9.50;7.75;;;;;8.07;60.40;99794.53;5000928;28;45344;-46
2021/11/26 10:27:39;;;;;;;;;9.75;9.50;;;;;8.06;60.71;99774.50;5000524;28;45420;-46
2021/11/26 10:30:09;;;;;;;;;10.00;10.00;;;;;8.05;60.37;99764.94;5000652;28;46339;-46
2021/11/26 10:32:35;;;;;;;;;11.00;8.75;;;;;8.03;60.25;99748.38;5000656;28;45323;-50
2021/11/26 10:35:00;;;;;;;;;10.00;9.50;;;;;8.00;60.33;99743.22;5009213;28;45214;-48
2021/11/26 10:37:27;;;;;;;;;9.00;8.25;;;;;8.01;60.33;99733.63;5000540;28;45254;-46
2021/11/26 10:39:53;;;;;;;;;8.75;8.75;;;;;8.01;60.25;99726.63;4999206;28;47297;-46
2021/11/26 10:42:27;;;;;;;;;11.00;9.00;;;;;7.98;60.25;99722.31;4999357;28;45441;-46
2021/11/26 10:45:02;;;;;;;;;11.25;10.25;;;;;7.94;59.89;99696.25;4999456;28;45330;-47
2021/11/26 10:47:43;;;;;;;;;7.75;5.00;;;;;7.92;59.95;99695.41;5000282;28;45408;-46
2021/11/26 10:58:49;;;;;;;;;5.00;5.00;;;;;7.90;59.65;99689.34;4999443;28;45226;-48
2021/11/26 11:01:15;;;;;;;;;9.25;6.75;;;;;7.91;59.77;99683.22;5000089;28;46930;-49
2021/11/26 11:03:42;;;;;;;;;4.25;3.25;;;;;7.87;59.50;99681.56;5000046;28;45450;-47
2021/11/26 11:06:22;;;;;;;;;4.75;4.75;;;;;7.87;59.52;99674.56;5000292;28;45426;-51
2021/11/26 11:09:07;;;;;;;;;8.25;5.00;;;;;7.87;59.92;99660.66;5000127;28;45349;-51
2021/11/26 11:11:34;;;;;;;;;5.75;5.00;;;;;7.87;59.68;99658.88;5003647;28;46117;-47
2021/11/26 11:14:01;;;;;;;;;11.00;5.50;;;;;7.73;59.61;99633.00;4999815;28;45230;-49
2021/11/26 11:16:27;;;;;;;;;5.25;4.00;;;;;7.84;59.64;99652.88;5000364;28;45384;-47
2021/11/26 11:18:53;;;;;;;;;6.25;4.25;;;;;7.81;59.49;99632.84;4999590;28;45604;-47
2021/11/26 11:21:20;;;;;;;;;5.25;4.00;;;;;7.84;59.55;99638.03;5000109;28;46096;-47
2021/11/26 11:23:49;;;;;;;;;3.00;3.00;;;;;7.82;59.45;99608.41;4998448;28;45289;-51
2021/11/26 11:26:15;;;;;;;;;4.50;3.50;;;;;7.87;59.68;99609.16;5000203;28;45393;-48
2021/11/26 11:28:40;;;;;;;;;4.00;3.50;;;;;7.88;59.46;99599.59;4999677;28;45530;-46
2021/11/26 11:31:06;;;;;;;;;3.00;3.00;;;;;7.90;59.54;99585.59;5000156;28;46340;-47
2021/11/26 11:33:31;;;;;;;;;5.00;3.50;;;;;7.92;59.63;99578.56;4999574;28;45504;-48